createdAt,value
2023-01-18T00:13:24.183Z,3.1
2023-01-18T00:28:58.560Z,3
2023-01-18T00:44:32.905Z,3
2023-01-18T01:00:07.091Z,3
2023-01-18T01:15:41.423Z,2.9
2023-01-18T01:31:15.832Z,2.8
2023-01-18T01:46:50.170Z,2.7
2023-01-18T02:02:24.845Z,2.7
2023-01-18T02:17:59.225Z,2.8
2023-01-18T02:33:33.583Z,2.9
2023-01-18T02:49:07.956Z,2.9
2023-01-18T03:04:42.300Z,2.9
2023-01-18T03:20:16.673Z,2.9
2023-01-18T03:35:51.047Z,3
2023-01-18T03:51:25.393Z,3
2023-01-18T04:06:59.785Z,3.1
2023-01-18T04:22:37.030Z,3.3
2023-01-18T04:38:11.391Z,3.3
2023-01-18T04:53:45.734Z,3.3
2023-01-18T05:09:20.089Z,3.3
2023-01-18T05:24:57.126Z,3.2
2023-01-18T05:40:31.554Z,3.2
2023-01-18T05:56:05.870Z,3.2
2023-01-18T06:11:40.211Z,3.3
2023-01-18T06:27:14.553Z,3.3
2023-01-18T06:42:49.112Z,3.5
2023-01-18T06:58:23.567Z,3.5
2023-01-18T07:13:57.933Z,3.5
2023-01-18T07:29:32.061Z,3.6
2023-01-18T07:45:06.937Z,3.7
2023-01-18T08:00:41.366Z,3.6
2023-01-18T08:16:16.173Z,3.5
2023-01-18T08:31:50.615Z,3.5
2023-01-18T08:47:25.055Z,3.5
2023-01-18T09:03:02.008Z,3.6
2023-01-18T09:18:36.630Z,3.8
2023-01-18T09:34:21.759Z,3.9
2023-01-18T09:49:56.294Z,3.9
2023-01-18T10:05:30.650Z,3.9
2023-01-18T10:21:05.030Z,4
2023-01-18T10:36:39.477Z,3.9
2023-01-18T10:52:13.889Z,4.1
2023-01-18T11:07:48.252Z,4.1
2023-01-18T11:23:22.805Z,4.2
2023-01-18T11:38:57.196Z,4.3
2023-01-18T11:54:31.666Z,4.3
2023-01-18T12:10:06.099Z,4.2
2023-01-18T12:25:40.451Z,4.1
2023-01-18T12:41:14.976Z,4.1
2023-01-18T12:56:49.366Z,4.2
2023-01-18T13:12:23.722Z,4.2
2023-01-18T13:27:59.728Z,4.2
2023-01-18T13:43:34.498Z,4.2
2023-01-18T13:59:08.873Z,4
2023-01-18T14:14:43.305Z,3.9
2023-01-18T14:30:17.738Z,4
2023-01-18T14:45:52.167Z,4
2023-01-18T15:01:27.509Z,4
2023-01-18T15:17:02.102Z,3.9
2023-01-18T15:32:36.448Z,3.7
2023-01-18T15:48:10.851Z,3.6
2023-01-18T16:03:45.304Z,3.6
2023-01-18T16:19:19.739Z,3.6
2023-01-18T16:34:54.087Z,3.6
2023-01-18T16:50:28.480Z,3.5
2023-01-18T17:06:03.004Z,3.3
2023-01-18T17:21:37.325Z,3.3
2023-01-18T17:37:11.699Z,3.1
2023-01-18T17:52:46.215Z,2.9
2023-01-18T18:08:22.830Z,2.9
2023-01-18T18:23:57.173Z,2.8
2023-01-18T18:39:31.620Z,2.6
2023-01-18T18:55:05.975Z,2.5
2023-01-18T19:10:40.387Z,2.4
2023-01-18T19:26:14.735Z,2.2
2023-01-18T19:41:49.119Z,2
2023-01-18T19:57:23.475Z,1.8
2023-01-18T20:12:58.877Z,1.7
2023-01-18T20:28:33.436Z,1.6
2023-01-18T20:44:07.782Z,1.6
2023-01-18T20:59:42.259Z,1.4
2023-01-18T21:15:16.555Z,1.2
2023-01-18T21:30:50.958Z,1
2023-01-18T21:46:25.616Z,0.8
2023-01-18T22:02:00.724Z,0.6
2023-01-18T22:17:35.383Z,0.5
2023-01-18T22:33:09.694Z,0.2
2023-01-18T22:48:44.047Z,0.1
2023-01-18T23:04:18.408Z,0
2023-01-18T23:19:52.827Z,-0.1
2023-01-18T23:35:27.153Z,-0.2
2023-01-18T23:51:01.612Z,-0.3
